Terminal Aerodrome Forecast
Issued by NWS Milwaukee/Sullivan, WI

Home | Current Version | Previous Version | Text Only | Print | Product List | Glossary On
Versions: 1 2 3 4 5 6 7 8 9 10 11 12 13 14 15 16 17 18 19 20 21 22 23 24 25 26 27 28 29 30
000
FTUS43 KMKX 270538
TAFMKE
TAF
KMKE 270538Z 2706/2812 24006KT P6SM SCT070
     FM271800 18006KT P6SM SCT040
     FM280800 15006KT 6SM -RA OVC035
     FM281000 14007KT 5SM -RA OVC010=

USA.gov is the U.S. government's official web portal to all federal, state and local government web resources and services.